sensor_id;sensor_type;location;lat;lon;timestamp;P1;durP1;ratioP1;P2;durP2;ratioP2
13309;SDS011;6723;48.256;16.402;2023-01-28T00:00:34;21.70;;;13.17;;
13309;SDS011;6723;48.256;16.402;2023-01-28T00:03:00;21.00;;;11.47;;
13309;SDS011;6723;48.256;16.402;2023-01-28T00:05:26;21.27;;;12.97;;
13309;SDS011;6723;48.256;16.402;2023-01-28T00:07:54;20.33;;;12.73;;
13309;SDS011;6723;48.256;16.402;2023-01-28T00:10:20;20.83;;;13.23;;
13309;SDS011;6723;48.256;16.402;2023-01-28T00:12:46;23.07;;;12.13;;
13309;SDS011;6723;48.256;16.402;2023-01-28T00:15:12;19.57;;;12.23;;
13309;SDS011;6723;48.256;16.402;2023-01-28T00:17:38;20.50;;;12.67;;
13309;SDS011;6723;48.256;16.402;2023-01-28T00:20:04;19.67;;;12.17;;
13309;SDS011;6723;48.256;16.402;2023-01-28T00:22:32;21.97;;;13.00;;
13309;SDS011;6723;48.256;16.402;2023-01-28T00:24:57;21.60;;;12.57;;
13309;SDS011;6723;48.256;16.402;2023-01-28T00:27:23;22.00;;;12.93;;
13309;SDS011;6723;48.256;16.402;2023-01-28T00:29:49;20.97;;;13.23;;
13309;SDS011;6723;48.256;16.402;2023-01-28T00:32:15;22.33;;;13.07;;
13309;SDS011;6723;48.256;16.402;2023-01-28T00:34:40;25.53;;;15.30;;
13309;SDS011;6723;48.256;16.402;2023-01-28T00:37:06;26.60;;;14.97;;
13309;SDS011;6723;48.256;16.402;2023-01-28T00:39:32;22.80;;;14.20;;
13309;SDS011;6723;48.256;16.402;2023-01-28T00:41:58;21.73;;;12.90;;
13309;SDS011;6723;48.256;16.402;2023-01-28T00:44:24;21.83;;;13.67;;
13309;SDS011;6723;48.256;16.402;2023-01-28T00:46:49;24.67;;;14.73;;
13309;SDS011;6723;48.256;16.402;2023-01-28T00:49:15;28.70;;;14.07;;
13309;SDS011;6723;48.256;16.402;2023-01-28T00:51:41;24.20;;;13.77;;
13309;SDS011;6723;48.256;16.402;2023-01-28T00:54:08;23.87;;;13.73;;
13309;SDS011;6723;48.256;16.402;2023-01-28T00:56:37;26.97;;;14.90;;
13309;SDS011;6723;48.256;16.402;2023-01-28T00:59:03;25.53;;;15.03;;
13309;SDS011;6723;48.256;16.402;2023-01-28T01:01:29;25.83;;;15.20;;
13309;SDS011;6723;48.256;16.402;2023-01-28T01:03:55;26.30;;;15.50;;
13309;SDS011;6723;48.256;16.402;2023-01-28T01:06:31;25.60;;;14.67;;
13309;SDS011;6723;48.256;16.402;2023-01-28T01:09:00;26.87;;;14.67;;
13309;SDS011;6723;48.256;16.402;2023-01-28T01:11:27;27.80;;;16.60;;
13309;SDS011;6723;48.256;16.402;2023-01-28T01:13:54;26.63;;;15.70;;
13309;SDS011;6723;48.256;16.402;2023-01-28T01:16:22;30.50;;;16.47;;
13309;SDS011;6723;48.256;16.402;2023-01-28T01:18:50;30.67;;;16.93;;
13309;SDS011;6723;48.256;16.402;2023-01-28T01:21:17;29.50;;;16.20;;
13309;SDS011;6723;48.256;16.402;2023-01-28T01:23:45;26.03;;;15.57;;
13309;SDS011;6723;48.256;16.402;2023-01-28T01:26:12;27.20;;;15.53;;
13309;SDS011;6723;48.256;16.402;2023-01-28T01:28:38;25.97;;;16.03;;
13309;SDS011;6723;48.256;16.402;2023-01-28T01:31:05;27.87;;;16.63;;
13309;SDS011;6723;48.256;16.402;2023-01-28T01:33:42;25.57;;;15.73;;
13309;SDS011;6723;48.256;16.402;2023-01-28T01:36:10;26.93;;;15.53;;
13309;SDS011;6723;48.256;16.402;2023-01-28T01:38:37;27.47;;;15.70;;
13309;SDS011;6723;48.256;16.402;2023-01-28T01:41:03;26.67;;;15.07;;
13309;SDS011;6723;48.256;16.402;2023-01-28T01:46:17;28.33;;;16.10;;
13309;SDS011;6723;48.256;16.402;2023-01-28T01:51:46;25.03;;;15.50;;
13309;SDS011;6723;48.256;16.402;2023-01-28T01:54:16;25.30;;;14.97;;
13309;SDS011;6723;48.256;16.402;2023-01-28T01:56:44;29.17;;;16.23;;
13309;SDS011;6723;48.256;16.402;2023-01-28T01:59:13;26.97;;;15.43;;
13309;SDS011;6723;48.256;16.402;2023-01-28T02:01:45;27.43;;;15.63;;
13309;SDS011;6723;48.256;16.402;2023-01-28T02:04:14;27.77;;;16.13;;
13309;SDS011;6723;48.256;16.402;2023-01-28T02:06:51;28.37;;;15.00;;
13309;SDS011;6723;48.256;16.402;2023-01-28T02:09:27;26.63;;;15.43;;
13309;SDS011;6723;48.256;16.402;2023-01-28T02:11:57;24.17;;;13.93;;
13309;SDS011;6723;48.256;16.402;2023-01-28T02:14:35;28.67;;;15.83;;
13309;SDS011;6723;48.256;16.402;2023-01-28T02:17:06;26.97;;;15.77;;
13309;SDS011;6723;48.256;16.402;2023-01-28T02:19:35;25.47;;;14.83;;
13309;SDS011;6723;48.256;16.402;2023-01-28T02:35:26;26.37;;;15.40;;
13309;SDS011;6723;48.256;16.402;2023-01-28T02:37:44;26.67;;;15.20;;
13309;SDS011;6723;48.256;16.402;2023-01-28T02:40:51;26.17;;;14.90;;
13309;SDS011;6723;48.256;16.402;2023-01-28T02:43:38;26.13;;;15.37;;
13309;SDS011;6723;48.256;16.402;2023-01-28T02:48:55;27.00;;;15.07;;
13309;SDS011;6723;48.256;16.402;2023-01-28T02:54:02;26.50;;;15.20;;
13309;SDS011;6723;48.256;16.402;2023-01-28T02:56:58;26.33;;;15.40;;
13309;SDS011;6723;48.256;16.402;2023-01-28T03:02:22;25.67;;;15.50;;
13309;SDS011;6723;48.256;16.402;2023-01-28T03:07:42;27.53;;;15.67;;
13309;SDS011;6723;48.256;16.402;2023-01-28T03:10:10;28.00;;;15.80;;
13309;SDS011;6723;48.256;16.402;2023-01-28T03:12:41;25.67;;;15.67;;
13309;SDS011;6723;48.256;16.402;2023-01-28T03:15:35;25.13;;;15.57;;
13309;SDS011;6723;48.256;16.402;2023-01-28T03:18:35;24.93;;;14.77;;
13309;SDS011;6723;48.256;16.402;2023-01-28T03:21:35;27.17;;;15.70;;
13309;SDS011;6723;48.256;16.402;2023-01-28T03:30:24;28.23;;;16.17;;
13309;SDS011;6723;48.256;16.402;2023-01-28T03:33:15;29.93;;;16.73;;
13309;SDS011;6723;48.256;16.402;2023-01-28T03:36:00;27.47;;;16.20;;
13309;SDS011;6723;48.256;16.402;2023-01-28T03:38:45;28.43;;;16.07;;
13309;SDS011;6723;48.256;16.402;2023-01-28T03:41:18;25.00;;;15.37;;
13309;SDS011;6723;48.256;16.402;2023-01-28T03:43:48;25.50;;;14.90;;
13309;SDS011;6723;48.256;16.402;2023-01-28T03:46:15;28.00;;;15.70;;
13309;SDS011;6723;48.256;16.402;2023-01-28T03:48:42;31.73;;;16.87;;
13309;SDS011;6723;48.256;16.402;2023-01-28T03:51:09;26.73;;;15.43;;
13309;SDS011;6723;48.256;16.402;2023-01-28T03:53:36;26.80;;;15.53;;
13309;SDS011;6723;48.256;16.402;2023-01-28T03:56:04;25.73;;;15.83;;
13309;SDS011;6723;48.256;16.402;2023-01-28T03:58:31;28.63;;;16.20;;
13309;SDS011;6723;48.256;16.402;2023-01-28T04:01:15;28.43;;;15.83;;
13309;SDS011;6723;48.256;16.402;2023-01-28T04:03:41;27.37;;;15.43;;
13309;SDS011;6723;48.256;16.402;2023-01-28T04:06:07;29.73;;;16.00;;
13309;SDS011;6723;48.256;16.402;2023-01-28T04:08:34;27.37;;;16.50;;
13309;SDS011;6723;48.256;16.402;2023-01-28T04:11:00;29.03;;;16.37;;
13309;SDS011;6723;48.256;16.402;2023-01-28T04:13:42;29.00;;;16.80;;
13309;SDS011;6723;48.256;16.402;2023-01-28T04:16:09;29.13;;;17.60;;
13309;SDS011;6723;48.256;16.402;2023-01-28T04:18:35;30.73;;;17.20;;
13309;SDS011;6723;48.256;16.402;2023-01-28T04:21:02;29.80;;;17.40;;
13309;SDS011;6723;48.256;16.402;2023-01-28T04:23:27;30.97;;;16.87;;
13309;SDS011;6723;48.256;16.402;2023-01-28T04:25:56;30.80;;;17.00;;
13309;SDS011;6723;48.256;16.402;2023-01-28T04:28:22;29.63;;;17.07;;
13309;SDS011;6723;48.256;16.402;2023-01-28T04:30:48;29.80;;;17.53;;
13309;SDS011;6723;48.256;16.402;2023-01-28T04:33:15;30.90;;;16.80;;
13309;SDS011;6723;48.256;16.402;2023-01-28T04:35:41;27.47;;;15.60;;
13309;SDS011;6723;48.256;16.402;2023-01-28T04:38:07;30.43;;;17.30;;
13309;SDS011;6723;48.256;16.402;2023-01-28T04:40:33;31.40;;;16.83;;
13309;SDS011;6723;48.256;16.402;2023-01-28T04:42:59;25.30;;;15.17;;
13309;SDS011;6723;48.256;16.402;2023-01-28T04:45:24;30.00;;;17.23;;
13309;SDS011;6723;48.256;16.402;2023-01-28T04:47:50;26.77;;;16.10;;
13309;SDS011;6723;48.256;16.402;2023-01-28T04:50:16;26.10;;;14.07;;
13309;SDS011;6723;48.256;16.402;2023-01-28T04:52:42;28.73;;;16.03;;
13309;SDS011;6723;48.256;16.402;2023-01-28T04:55:09;28.43;;;16.53;;
13309;SDS011;6723;48.256;16.402;2023-01-28T04:57:35;29.30;;;16.03;;
13309;SDS011;6723;48.256;16.402;2023-01-28T05:00:01;26.27;;;14.57;;
13309;SDS011;6723;48.256;16.402;2023-01-28T05:02:29;27.77;;;16.57;;
13309;SDS011;6723;48.256;16.402;2023-01-28T05:04:55;30.43;;;15.90;;
13309;SDS011;6723;48.256;16.402;2023-01-28T05:07:21;30.30;;;15.50;;
13309;SDS011;6723;48.256;16.402;2023-01-28T05:09:47;26.20;;;15.43;;
13309;SDS011;6723;48.256;16.402;2023-01-28T05:12:13;27.93;;;15.70;;
13309;SDS011;6723;48.256;16.402;2023-01-28T05:14:39;27.80;;;15.13;;
13309;SDS011;6723;48.256;16.402;2023-01-28T05:17:05;27.60;;;15.63;;
13309;SDS011;6723;48.256;16.402;2023-01-28T05:19:30;27.33;;;15.17;;
13309;SDS011;6723;48.256;16.402;2023-01-28T05:21:56;27.50;;;16.53;;
13309;SDS011;6723;48.256;16.402;2023-01-28T05:24:22;28.47;;;15.90;;
13309;SDS011;6723;48.256;16.402;2023-01-28T05:26:48;27.53;;;15.93;;
13309;SDS011;6723;48.256;16.402;2023-01-28T05:29:14;29.43;;;16.93;;
13309;SDS011;6723;48.256;16.402;2023-01-28T05:31:39;28.90;;;16.67;;
13309;SDS011;6723;48.256;16.402;2023-01-28T05:34:05;30.53;;;17.17;;
13309;SDS011;6723;48.256;16.402;2023-01-28T05:36:32;30.97;;;16.87;;
13309;SDS011;6723;48.256;16.402;2023-01-28T05:38:58;30.73;;;17.27;;
13309;SDS011;6723;48.256;16.402;2023-01-28T05:41:24;29.27;;;16.33;;
13309;SDS011;6723;48.256;16.402;2023-01-28T05:43:50;27.27;;;15.27;;
13309;SDS011;6723;48.256;16.402;2023-01-28T05:46:15;28.90;;;16.93;;
13309;SDS011;6723;48.256;16.402;2023-01-28T05:48:41;27.50;;;15.40;;
13309;SDS011;6723;48.256;16.402;2023-01-28T05:51:07;28.97;;;15.67;;
13309;SDS011;6723;48.256;16.402;2023-01-28T05:53:32;28.00;;;16.67;;
13309;SDS011;6723;48.256;16.402;2023-01-28T05:55:58;29.03;;;16.27;;
13309;SDS011;6723;48.256;16.402;2023-01-28T05:58:24;29.07;;;15.73;;
13309;SDS011;6723;48.256;16.402;2023-01-28T06:00:53;28.57;;;16.80;;
13309;SDS011;6723;48.256;16.402;2023-01-28T06:03:20;26.87;;;15.37;;
13309;SDS011;6723;48.256;16.402;2023-01-28T06:05:47;26.53;;;15.37;;
13309;SDS011;6723;48.256;16.402;2023-01-28T06:08:12;31.50;;;15.53;;
13309;SDS011;6723;48.256;16.402;2023-01-28T06:10:38;31.40;;;17.50;;
13309;SDS011;6723;48.256;16.402;2023-01-28T06:13:04;27.87;;;15.30;;
13309;SDS011;6723;48.256;16.402;2023-01-28T06:15:30;29.40;;;16.97;;
13309;SDS011;6723;48.256;16.402;2023-01-28T06:17:56;27.30;;;15.37;;
13309;SDS011;6723;48.256;16.402;2023-01-28T06:20:23;28.27;;;15.93;;
13309;SDS011;6723;48.256;16.402;2023-01-28T06:22:51;29.50;;;16.47;;
13309;SDS011;6723;48.256;16.402;2023-01-28T06:25:17;28.17;;;16.47;;
13309;SDS011;6723;48.256;16.402;2023-01-28T06:27:44;28.50;;;16.10;;
13309;SDS011;6723;48.256;16.402;2023-01-28T06:30:10;29.00;;;16.60;;
13309;SDS011;6723;48.256;16.402;2023-01-28T06:32:36;25.20;;;15.57;;
13309;SDS011;6723;48.256;16.402;2023-01-28T06:35:02;27.67;;;15.87;;
13309;SDS011;6723;48.256;16.402;2023-01-28T06:37:29;27.13;;;15.27;;
13309;SDS011;6723;48.256;16.402;2023-01-28T06:39:55;26.40;;;15.20;;
13309;SDS011;6723;48.256;16.402;2023-01-28T06:42:23;28.37;;;16.13;;
13309;SDS011;6723;48.256;16.402;2023-01-28T06:44:49;27.33;;;15.33;;
13309;SDS011;6723;48.256;16.402;2023-01-28T06:47:15;32.17;;;16.57;;
13309;SDS011;6723;48.256;16.402;2023-01-28T06:49:41;28.77;;;16.13;;
13309;SDS011;6723;48.256;16.402;2023-01-28T06:52:06;27.90;;;15.47;;
13309;SDS011;6723;48.256;16.402;2023-01-28T06:54:32;30.13;;;15.23;;
13309;SDS011;6723;48.256;16.402;2023-01-28T06:56:58;26.90;;;16.07;;
13309;SDS011;6723;48.256;16.402;2023-01-28T06:59:24;28.87;;;16.07;;
13309;SDS011;6723;48.256;16.402;2023-01-28T07:01:50;31.07;;;16.90;;
13309;SDS011;6723;48.256;16.402;2023-01-28T07:04:15;26.63;;;16.57;;
13309;SDS011;6723;48.256;16.402;2023-01-28T07:06:41;29.93;;;16.73;;
13309;SDS011;6723;48.256;16.402;2023-01-28T07:09:07;28.77;;;16.57;;
13309;SDS011;6723;48.256;16.402;2023-01-28T07:11:33;25.73;;;15.23;;
13309;SDS011;6723;48.256;16.402;2023-01-28T07:13:59;28.10;;;16.40;;
13309;SDS011;6723;48.256;16.402;2023-01-28T07:16:24;28.13;;;16.13;;
13309;SDS011;6723;48.256;16.402;2023-01-28T07:18:50;26.67;;;15.17;;
13309;SDS011;6723;48.256;16.402;2023-01-28T07:21:16;30.30;;;16.90;;
13309;SDS011;6723;48.256;16.402;2023-01-28T07:23:42;32.40;;;16.83;;
13309;SDS011;6723;48.256;16.402;2023-01-28T07:26:08;32.27;;;16.67;;
13309;SDS011;6723;48.256;16.402;2023-01-28T07:28:33;30.07;;;16.43;;
13309;SDS011;6723;48.256;16.402;2023-01-28T07:30:59;29.53;;;16.03;;
13309;SDS011;6723;48.256;16.402;2023-01-28T07:33:25;28.23;;;15.67;;
13309;SDS011;6723;48.256;16.402;2023-01-28T07:35:51;25.77;;;15.77;;
13309;SDS011;6723;48.256;16.402;2023-01-28T07:38:16;31.47;;;16.67;;
13309;SDS011;6723;48.256;16.402;2023-01-28T07:40:43;32.13;;;16.10;;
13309;SDS011;6723;48.256;16.402;2023-01-28T07:43:10;29.73;;;15.93;;
13309;SDS011;6723;48.256;16.402;2023-01-28T07:45:36;30.70;;;17.30;;
13309;SDS011;6723;48.256;16.402;2023-01-28T07:48:03;31.87;;;17.37;;
13309;SDS011;6723;48.256;16.402;2023-01-28T07:50:32;31.30;;;17.63;;
13309;SDS011;6723;48.256;16.402;2023-01-28T07:53:03;31.43;;;17.47;;
13309;SDS011;6723;48.256;16.402;2023-01-28T07:55:31;29.50;;;17.20;;
13309;SDS011;6723;48.256;16.402;2023-01-28T07:57:59;27.77;;;15.93;;
13309;SDS011;6723;48.256;16.402;2023-01-28T08:00:27;29.63;;;15.97;;
13309;SDS011;6723;48.256;16.402;2023-01-28T08:02:59;30.43;;;16.77;;
13309;SDS011;6723;48.256;16.402;2023-01-28T08:05:40;27.97;;;16.83;;
13309;SDS011;6723;48.256;16.402;2023-01-28T08:08:12;28.27;;;16.27;;
13309;SDS011;6723;48.256;16.402;2023-01-28T08:10:38;32.20;;;16.57;;
13309;SDS011;6723;48.256;16.402;2023-01-28T08:13:05;31.17;;;16.43;;
13309;SDS011;6723;48.256;16.402;2023-01-28T08:15:31;30.50;;;17.40;;
13309;SDS011;6723;48.256;16.402;2023-01-28T08:17:59;30.20;;;17.00;;
13309;SDS011;6723;48.256;16.402;2023-01-28T08:20:28;30.77;;;17.00;;
13309;SDS011;6723;48.256;16.402;2023-01-28T08:23:05;32.77;;;18.10;;
13309;SDS011;6723;48.256;16.402;2023-01-28T08:25:39;34.63;;;17.73;;
13309;SDS011;6723;48.256;16.402;2023-01-28T08:28:06;28.80;;;16.70;;
13309;SDS011;6723;48.256;16.402;2023-01-28T08:30:33;31.33;;;17.23;;
13309;SDS011;6723;48.256;16.402;2023-01-28T08:33:02;31.60;;;17.43;;
13309;SDS011;6723;48.256;16.402;2023-01-28T08:35:28;34.97;;;17.90;;
13309;SDS011;6723;48.256;16.402;2023-01-28T08:37:54;29.20;;;17.50;;
13309;SDS011;6723;48.256;16.402;2023-01-28T08:40:22;34.73;;;18.70;;
13309;SDS011;6723;48.256;16.402;2023-01-28T08:42:49;32.60;;;17.97;;
13309;SDS011;6723;48.256;16.402;2023-01-28T08:45:16;33.50;;;18.77;;
13309;SDS011;6723;48.256;16.402;2023-01-28T08:47:47;38.73;;;20.37;;
13309;SDS011;6723;48.256;16.402;2023-01-28T08:50:17;32.07;;;18.13;;
13309;SDS011;6723;48.256;16.402;2023-01-28T08:52:44;33.17;;;18.50;;
13309;SDS011;6723;48.256;16.402;2023-01-28T08:55:11;29.47;;;18.33;;
13309;SDS011;6723;48.256;16.402;2023-01-28T08:57:38;33.67;;;17.60;;
13309;SDS011;6723;48.256;16.402;2023-01-28T09:00:04;36.20;;;18.43;;
13309;SDS011;6723;48.256;16.402;2023-01-28T09:02:32;35.30;;;17.90;;
13309;SDS011;6723;48.256;16.402;2023-01-28T09:04:58;33.20;;;17.73;;
13309;SDS011;6723;48.256;16.402;2023-01-28T09:07:24;33.23;;;17.90;;
13309;SDS011;6723;48.256;16.402;2023-01-28T09:09:51;31.23;;;18.40;;
13309;SDS011;6723;48.256;16.402;2023-01-28T09:12:17;33.83;;;19.00;;
13309;SDS011;6723;48.256;16.402;2023-01-28T09:14:43;30.03;;;17.27;;
13309;SDS011;6723;48.256;16.402;2023-01-28T09:17:08;33.73;;;19.07;;
13309;SDS011;6723;48.256;16.402;2023-01-28T09:19:36;33.67;;;18.97;;
13309;SDS011;6723;48.256;16.402;2023-01-28T09:22:02;31.27;;;18.17;;
13309;SDS011;6723;48.256;16.402;2023-01-28T09:24:29;33.20;;;17.93;;
13309;SDS011;6723;48.256;16.402;2023-01-28T09:26:54;36.17;;;19.03;;
13309;SDS011;6723;48.256;16.402;2023-01-28T09:29:20;34.03;;;18.13;;
13309;SDS011;6723;48.256;16.402;2023-01-28T09:31:46;30.67;;;16.90;;
13309;SDS011;6723;48.256;16.402;2023-01-28T09:34:19;29.73;;;17.27;;
13309;SDS011;6723;48.256;16.402;2023-01-28T09:36:45;31.87;;;16.93;;
13309;SDS011;6723;48.256;16.402;2023-01-28T09:39:10;27.40;;;16.10;;
13309;SDS011;6723;48.256;16.402;2023-01-28T09:47:58;29.73;;;16.80;;
13309;SDS011;6723;48.256;16.402;2023-01-28T09:50:15;33.00;;;17.30;;
13309;SDS011;6723;48.256;16.402;2023-01-28T09:52:48;31.27;;;16.60;;
13309;SDS011;6723;48.256;16.402;2023-01-28T09:55:29;28.53;;;16.80;;
13309;SDS011;6723;48.256;16.402;2023-01-28T09:57:56;30.73;;;16.40;;
13309;SDS011;6723;48.256;16.402;2023-01-28T10:00:23;30.17;;;16.60;;
13309;SDS011;6723;48.256;16.402;2023-01-28T10:08:23;28.63;;;15.60;;
13309;SDS011;6723;48.256;16.402;2023-01-28T10:10:54;27.83;;;14.77;;
13309;SDS011;6723;48.256;16.402;2023-01-28T10:18:45;28.67;;;15.03;;
13309;SDS011;6723;48.256;16.402;2023-01-28T10:21:22;25.20;;;15.10;;
13309;SDS011;6723;48.256;16.402;2023-01-28T10:24:24;29.63;;;15.37;;
13309;SDS011;6723;48.256;16.402;2023-01-28T10:26:59;31.23;;;16.50;;
13309;SDS011;6723;48.256;16.402;2023-01-28T10:29:27;29.80;;;16.13;;
13309;SDS011;6723;48.256;16.402;2023-01-28T10:34:48;26.50;;;14.40;;
13309;SDS011;6723;48.256;16.402;2023-01-28T10:37:15;27.67;;;14.47;;
13309;SDS011;6723;48.256;16.402;2023-01-28T10:39:41;26.37;;;15.67;;
13309;SDS011;6723;48.256;16.402;2023-01-28T10:47:47;28.93;;;16.30;;
13309;SDS011;6723;48.256;16.402;2023-01-28T10:51:03;27.50;;;15.50;;
13309;SDS011;6723;48.256;16.402;2023-01-28T10:56:03;28.43;;;15.40;;
13309;SDS011;6723;48.256;16.402;2023-01-28T10:58:33;27.27;;;15.90;;
13309;SDS011;6723;48.256;16.402;2023-01-28T11:01:02;27.97;;;15.73;;
13309;SDS011;6723;48.256;16.402;2023-01-28T11:03:31;29.20;;;14.90;;
13309;SDS011;6723;48.256;16.402;2023-01-28T11:05:59;29.67;;;16.47;;
13309;SDS011;6723;48.256;16.402;2023-01-28T11:08:27;29.40;;;15.43;;
13309;SDS011;6723;48.256;16.402;2023-01-28T11:10:55;30.60;;;16.33;;
13309;SDS011;6723;48.256;16.402;2023-01-28T11:13:25;29.20;;;16.47;;
13309;SDS011;6723;48.256;16.402;2023-01-28T11:15:56;28.20;;;16.33;;
13309;SDS011;6723;48.256;16.402;2023-01-28T11:18:30;29.53;;;16.73;;
13309;SDS011;6723;48.256;16.402;2023-01-28T11:21:12;32.73;;;17.17;;
13309;SDS011;6723;48.256;16.402;2023-01-28T11:23:52;33.23;;;16.97;;
13309;SDS011;6723;48.256;16.402;2023-01-28T11:26:29;31.40;;;16.83;;
13309;SDS011;6723;48.256;16.402;2023-01-28T11:28:59;29.57;;;16.73;;
13309;SDS011;6723;48.256;16.402;2023-01-28T11:31:25;29.53;;;16.13;;
13309;SDS011;6723;48.256;16.402;2023-01-28T11:36:29;26.93;;;16.13;;
13309;SDS011;6723;48.256;16.402;2023-01-28T11:43:55;31.17;;;17.77;;
13309;SDS011;6723;48.256;16.402;2023-01-28T12:07:53;31.37;;;16.87;;
13309;SDS011;6723;48.256;16.402;2023-01-28T12:16:04;31.70;;;17.63;;
13309;SDS011;6723;48.256;16.402;2023-01-28T12:38:35;29.93;;;15.60;;
13309;SDS011;6723;48.256;16.402;2023-01-28T12:41:13;25.97;;;15.33;;
13309;SDS011;6723;48.256;16.402;2023-01-28T12:43:44;27.83;;;15.47;;
13309;SDS011;6723;48.256;16.402;2023-01-28T12:52:02;28.23;;;16.23;;
13309;SDS011;6723;48.256;16.402;2023-01-28T12:57:35;27.43;;;15.87;;
13309;SDS011;6723;48.256;16.402;2023-01-28T13:02:40;31.30;;;16.23;;
13309;SDS011;6723;48.256;16.402;2023-01-28T13:05:14;25.07;;;14.80;;
13309;SDS011;6723;48.256;16.402;2023-01-28T13:07:51;29.43;;;15.60;;
13309;SDS011;6723;48.256;16.402;2023-01-28T13:10:24;28.43;;;15.40;;
13309;SDS011;6723;48.256;16.402;2023-01-28T13:12:54;26.73;;;14.83;;
13309;SDS011;6723;48.256;16.402;2023-01-28T13:15:22;28.17;;;16.23;;
13309;SDS011;6723;48.256;16.402;2023-01-28T13:17:52;30.33;;;16.33;;
13309;SDS011;6723;48.256;16.402;2023-01-28T13:23:48;27.00;;;14.93;;
13309;SDS011;6723;48.256;16.402;2023-01-28T13:28:53;27.43;;;16.17;;
13309;SDS011;6723;48.256;16.402;2023-01-28T13:31:35;30.13;;;15.47;;
13309;SDS011;6723;48.256;16.402;2023-01-28T13:40:02;28.27;;;14.67;;
13309;SDS011;6723;48.256;16.402;2023-01-28T13:42:31;27.97;;;15.27;;
13309;SDS011;6723;48.256;16.402;2023-01-28T13:47:49;30.87;;;15.90;;
13309;SDS011;6723;48.256;16.402;2023-01-28T13:50:22;29.37;;;15.57;;
13309;SDS011;6723;48.256;16.402;2023-01-28T13:53:15;28.23;;;15.97;;
13309;SDS011;6723;48.256;16.402;2023-01-28T13:55:46;28.97;;;15.87;;
13309;SDS011;6723;48.256;16.402;2023-01-28T13:58:21;26.83;;;14.93;;
13309;SDS011;6723;48.256;16.402;2023-01-28T14:09:47;26.10;;;14.23;;
13309;SDS011;6723;48.256;16.402;2023-01-28T14:12:23;24.90;;;13.77;;
13309;SDS011;6723;48.256;16.402;2023-01-28T14:17:54;25.57;;;14.40;;
13309;SDS011;6723;48.256;16.402;2023-01-28T14:23:04;26.37;;;14.57;;
13309;SDS011;6723;48.256;16.402;2023-01-28T14:34:05;27.63;;;15.50;;
13309;SDS011;6723;48.256;16.402;2023-01-28T14:36:54;24.87;;;15.57;;
13309;SDS011;6723;48.256;16.402;2023-01-28T14:39:25;26.63;;;15.23;;
13309;SDS011;6723;48.256;16.402;2023-01-28T14:41:53;27.63;;;16.23;;
13309;SDS011;6723;48.256;16.402;2023-01-28T14:44:29;28.67;;;15.97;;
13309;SDS011;6723;48.256;16.402;2023-01-28T14:53:06;27.27;;;15.03;;
13309;SDS011;6723;48.256;16.402;2023-01-28T14:58:29;26.67;;;15.53;;
13309;SDS011;6723;48.256;16.402;2023-01-28T15:00:59;30.47;;;16.00;;
13309;SDS011;6723;48.256;16.402;2023-01-28T15:03:26;26.70;;;15.47;;
13309;SDS011;6723;48.256;16.402;2023-01-28T15:08:51;26.43;;;14.93;;
13309;SDS011;6723;48.256;16.402;2023-01-28T15:11:19;27.83;;;15.57;;
13309;SDS011;6723;48.256;16.402;2023-01-28T15:13:50;27.83;;;15.83;;
13309;SDS011;6723;48.256;16.402;2023-01-28T15:16:20;27.83;;;15.37;;
13309;SDS011;6723;48.256;16.402;2023-01-28T15:18:53;29.67;;;15.93;;
13309;SDS011;6723;48.256;16.402;2023-01-28T15:21:21;26.50;;;15.13;;
13309;SDS011;6723;48.256;16.402;2023-01-28T15:23:49;23.93;;;14.93;;
13309;SDS011;6723;48.256;16.402;2023-01-28T15:26:24;28.50;;;16.00;;
13309;SDS011;6723;48.256;16.402;2023-01-28T15:29:00;28.40;;;16.17;;
13309;SDS011;6723;48.256;16.402;2023-01-28T15:31:27;26.43;;;15.40;;
13309;SDS011;6723;48.256;16.402;2023-01-28T15:36:38;25.23;;;14.57;;
13309;SDS011;6723;48.256;16.402;2023-01-28T15:39:11;27.40;;;15.93;;
13309;SDS011;6723;48.256;16.402;2023-01-28T15:41:39;27.17;;;14.73;;
13309;SDS011;6723;48.256;16.402;2023-01-28T15:44:17;27.83;;;16.00;;
13309;SDS011;6723;48.256;16.402;2023-01-28T15:46:54;28.23;;;16.50;;
13309;SDS011;6723;48.256;16.402;2023-01-28T15:49:21;27.97;;;16.27;;
13309;SDS011;6723;48.256;16.402;2023-01-28T15:51:51;27.20;;;15.43;;
13309;SDS011;6723;48.256;16.402;2023-01-28T15:54:18;29.17;;;16.07;;
13309;SDS011;6723;48.256;16.402;2023-01-28T15:56:44;30.23;;;16.07;;
13309;SDS011;6723;48.256;16.402;2023-01-28T16:04:43;32.67;;;17.00;;
13309;SDS011;6723;48.256;16.402;2023-01-28T16:07:19;30.97;;;15.87;;
13309;SDS011;6723;48.256;16.402;2023-01-28T16:09:49;29.47;;;16.73;;
13309;SDS011;6723;48.256;16.402;2023-01-28T16:12:17;28.23;;;15.33;;
13309;SDS011;6723;48.256;16.402;2023-01-28T16:17:23;29.03;;;15.73;;
13309;SDS011;6723;48.256;16.402;2023-01-28T16:20:05;30.50;;;15.90;;
13309;SDS011;6723;48.256;16.402;2023-01-28T16:22:42;28.13;;;15.20;;
13309;SDS011;6723;48.256;16.402;2023-01-28T16:28:04;28.13;;;15.67;;
13309;SDS011;6723;48.256;16.402;2023-01-28T16:30:43;31.33;;;15.93;;
13309;SDS011;6723;48.256;16.402;2023-01-28T16:35:53;30.77;;;15.97;;
13309;SDS011;6723;48.256;16.402;2023-01-28T16:38:19;29.23;;;16.47;;
13309;SDS011;6723;48.256;16.402;2023-01-28T16:40:54;29.63;;;16.60;;
13309;SDS011;6723;48.256;16.402;2023-01-28T16:43:20;29.87;;;17.57;;
13309;SDS011;6723;48.256;16.402;2023-01-28T16:45:45;28.67;;;16.17;;
13309;SDS011;6723;48.256;16.402;2023-01-28T16:48:12;31.13;;;17.03;;
13309;SDS011;6723;48.256;16.402;2023-01-28T16:50:38;28.43;;;17.23;;
13309;SDS011;6723;48.256;16.402;2023-01-28T16:53:25;31.53;;;17.73;;
13309;SDS011;6723;48.256;16.402;2023-01-28T16:55:56;30.60;;;17.07;;
13309;SDS011;6723;48.256;16.402;2023-01-28T16:58:23;32.77;;;17.10;;
13309;SDS011;6723;48.256;16.402;2023-01-28T17:00:50;31.40;;;17.10;;
13309;SDS011;6723;48.256;16.402;2023-01-28T17:03:17;26.27;;;16.13;;
13309;SDS011;6723;48.256;16.402;2023-01-28T17:05:44;30.93;;;17.53;;
13309;SDS011;6723;48.256;16.402;2023-01-28T17:08:10;28.23;;;17.27;;
13309;SDS011;6723;48.256;16.402;2023-01-28T17:10:36;29.93;;;16.70;;
13309;SDS011;6723;48.256;16.402;2023-01-28T17:13:02;31.47;;;17.20;;
13309;SDS011;6723;48.256;16.402;2023-01-28T17:15:28;29.17;;;16.53;;
13309;SDS011;6723;48.256;16.402;2023-01-28T17:17:54;29.83;;;16.47;;
13309;SDS011;6723;48.256;16.402;2023-01-28T17:20:20;30.20;;;17.77;;
13309;SDS011;6723;48.256;16.402;2023-01-28T17:22:46;25.63;;;15.93;;
13309;SDS011;6723;48.256;16.402;2023-01-28T17:25:12;29.47;;;16.30;;
13309;SDS011;6723;48.256;16.402;2023-01-28T17:27:38;28.20;;;16.93;;
13309;SDS011;6723;48.256;16.402;2023-01-28T17:30:04;28.50;;;16.67;;
13309;SDS011;6723;48.256;16.402;2023-01-28T17:32:31;26.23;;;16.70;;
13309;SDS011;6723;48.256;16.402;2023-01-28T17:34:57;30.93;;;16.67;;
13309;SDS011;6723;48.256;16.402;2023-01-28T17:37:22;31.10;;;16.30;;
13309;SDS011;6723;48.256;16.402;2023-01-28T17:39:48;32.23;;;17.40;;
13309;SDS011;6723;48.256;16.402;2023-01-28T17:42:14;26.13;;;15.60;;
13309;SDS011;6723;48.256;16.402;2023-01-28T17:44:41;28.30;;;15.47;;
13309;SDS011;6723;48.256;16.402;2023-01-28T17:47:07;25.17;;;14.60;;
13309;SDS011;6723;48.256;16.402;2023-01-28T17:49:33;24.63;;;15.00;;